Time;durP1;ratioP1;P1;durP2;ratioP2;P2;SDS_P1;SDS_P2;PMS_P1;PMS_P2;Temp;Humidity;BMP_temperature;BMP_pressure;BME280_temperature;BME280_humidity;BME280_pressure;Samples;Min_cycle;Max_cycle;Signal;HPM_P1;HPM_P2
2021/08/20 00:00:37;;;;;;;6.40;4.93;;;18.80;99.90;;;;;;5001206;28;20516;-40
2021/08/20 00:03:05;;;;;;;9.60;4.53;;;18.80;99.90;;;;;;5017138;28;20480;-42
2021/08/20 00:05:32;;;;;;;4.97;4.33;;;18.80;99.90;;;;;;5020793;28;20514;-41
2021/08/20 00:07:58;;;;;;;5.70;3.83;;;18.80;99.90;;;;;;5020248;28;20514;-42
2021/08/20 00:10:25;;;;;;;5.10;3.80;;;18.80;99.90;;;;;;5016109;28;20474;-40
2021/08/20 00:12:52;;;;;;;5.60;3.90;;;18.80;99.90;;;;;;5013667;28;20453;-41
2021/08/20 00:15:19;;;;;;;6.83;4.33;;;18.90;99.90;;;;;;5016412;28;20524;-40
2021/08/20 00:17:46;;;;;;;4.70;3.97;;;18.90;99.90;;;;;;5018275;28;20480;-41
2021/08/20 00:20:14;;;;;;;4.73;4.20;;;18.80;99.90;;;;;;5005033;28;20480;-40
2021/08/20 00:22:43;;;;;;;4.80;3.50;;;18.80;99.90;;;;;;5010885;28;20789;-41
2021/08/20 00:25:10;;;;;;;5.93;3.83;;;18.80;99.90;;;;;;5012882;28;20457;-40
2021/08/20 00:27:37;;;;;;;4.43;3.77;;;18.80;99.90;;;;;;5003361;28;20469;-40
2021/08/20 00:30:07;;;;;;;4.03;3.60;;;18.80;99.90;;;;;;5016247;28;20536;-42
2021/08/20 00:32:34;;;;;;;4.83;4.07;;;18.70;99.90;;;;;;5007820;28;20505;-40
2021/08/20 00:35:00;;;;;;;6.50;3.70;;;18.70;99.90;;;;;;5008621;28;20834;-40
2021/08/20 00:37:29;;;;;;;5.40;3.43;;;18.60;99.90;;;;;;5014679;28;20520;-42
2021/08/20 00:39:56;;;;;;;5.97;4.30;;;18.60;99.90;;;;;;5003176;28;20477;-41
2021/08/20 00:42:22;;;;;;;4.17;3.57;;;18.60;99.90;;;;;;5013373;28;20524;-40
2021/08/20 00:44:49;;;;;;;4.00;3.20;;;18.60;99.90;;;;;;5000427;28;20446;-40
2021/08/20 00:47:16;;;;;;;4.90;4.17;;;18.70;99.90;;;;;;5013477;28;20449;-41
2021/08/20 00:49:43;;;;;;;4.60;3.77;;;18.70;99.90;;;;;;5018640;28;20547;-40
2021/08/20 00:52:10;;;;;;;4.27;3.73;;;18.70;99.90;;;;;;4999826;28;20501;-41
2021/08/20 00:54:38;;;;;;;3.50;2.80;;;18.70;99.90;;;;;;5004116;28;20453;-40
2021/08/20 00:57:05;;;;;;;5.50;3.83;;;18.70;99.90;;;;;;5016855;28;20453;-40
2021/08/20 00:59:33;;;;;;;3.80;3.40;;;18.70;99.90;;;;;;5016325;28;20449;-42
2021/08/20 01:02:00;;;;;;;4.80;3.50;;;18.70;99.90;;;;;;5013843;28;20434;-42
2021/08/20 01:04:29;;;;;;;4.60;3.40;;;18.60;99.90;;;;;;5006692;28;20445;-41
2021/08/20 01:06:56;;;;;;;3.50;3.20;;;18.60;99.90;;;;;;5008043;28;20517;-42
2021/08/20 01:09:23;;;;;;;4.47;3.33;;;18.60;99.90;;;;;;5013490;28;20535;-40
2021/08/20 01:11:52;;;;;;;4.33;3.93;;;18.50;99.90;;;;;;5000705;28;20500;-41
2021/08/20 01:14:27;;;;;;;2.93;2.57;;;18.60;99.90;;;;;;5005229;28;20441;-41
2021/08/20 01:16:54;;;;;;;3.73;3.10;;;18.60;99.90;;;;;;5008759;28;20512;-40
2021/08/20 01:19:21;;;;;;;5.60;3.57;;;18.60;99.90;;;;;;4999196;28;20481;-41
2021/08/20 01:21:47;;;;;;;3.47;2.77;;;18.60;99.90;;;;;;5015444;28;20468;-40
2021/08/20 01:24:15;;;;;;;5.13;3.77;;;18.50;99.90;;;;;;5004437;28;20480;-41
2021/08/20 01:26:46;;;;;;;4.47;4.07;;;18.50;99.90;;;;;;5009749;28;20442;-41
2021/08/20 01:29:16;;;;;;;5.63;3.63;;;18.50;99.90;;;;;;5011609;28;20437;-41
2021/08/20 01:31:43;;;;;;;4.30;3.40;;;18.40;99.90;;;;;;5002250;28;20456;-39
2021/08/20 01:34:10;;;;;;;5.00;3.30;;;18.40;99.90;;;;;;5014145;28;20442;-40
2021/08/20 01:36:37;;;;;;;4.00;2.80;;;18.40;99.90;;;;;;5006946;28;20441;-40
2021/08/20 01:39:04;;;;;;;6.67;3.57;;;18.30;99.90;;;;;;5006642;28;20537;-40
2021/08/20 01:41:31;;;;;;;4.30;3.60;;;18.30;99.90;;;;;;5014764;28;20510;-40
2021/08/20 01:43:59;;;;;;;5.47;3.27;;;18.30;99.90;;;;;;5001506;28;20512;-41
2021/08/20 01:46:26;;;;;;;3.80;3.07;;;18.40;99.90;;;;;;5011163;28;20449;-40
2021/08/20 01:48:57;;;;;;;4.63;3.50;;;18.30;99.90;;;;;;5008886;28;20515;-41
2021/08/20 01:51:25;;;;;;;4.43;3.50;;;18.20;99.90;;;;;;5004205;28;21039;-40
2021/08/20 01:53:53;;;;;;;3.80;3.13;;;18.20;99.90;;;;;;5014842;28;20499;-39
2021/08/20 01:56:21;;;;;;;3.80;2.77;;;18.20;99.90;;;;;;5004434;28;20826;-41
2021/08/20 01:58:49;;;;;;;4.87;2.90;;;18.20;99.90;;;;;;5018357;28;20445;-40
2021/08/20 02:01:17;;;;;;;3.73;2.93;;;18.30;99.90;;;;;;5018077;28;20843;-40
2021/08/20 02:03:46;;;;;;;3.30;2.90;;;18.30;99.90;;;;;;5002064;28;20447;-40
2021/08/20 02:06:14;;;;;;;5.47;3.53;;;18.30;99.90;;;;;;5012757;28;20967;-39
2021/08/20 02:08:40;;;;;;;4.23;2.97;;;18.30;99.90;;;;;;5007932;28;20446;-39
2021/08/20 02:11:07;;;;;;;3.43;2.70;;;18.30;99.90;;;;;;5005776;28;20485;-40
2021/08/20 02:13:34;;;;;;;3.50;3.03;;;18.40;99.90;;;;;;5014311;28;20453;-40
2021/08/20 02:16:01;;;;;;;7.53;2.80;;;18.30;99.90;;;;;;5014615;28;20513;-40
2021/08/20 02:18:29;;;;;;;4.10;3.23;;;18.40;99.90;;;;;;5005278;28;20464;-41
2021/08/20 02:20:56;;;;;;;3.80;2.80;;;18.40;99.90;;;;;;5007098;28;20803;-40
2021/08/20 02:23:22;;;;;;;3.97;3.63;;;18.40;99.90;;;;;;5012694;28;20828;-40
2021/08/20 02:25:49;;;;;;;3.37;2.93;;;18.40;99.90;;;;;;5000483;28;20465;-40
2021/08/20 02:28:15;;;;;;;4.00;3.00;;;18.40;99.90;;;;;;5003836;28;20902;-42
2021/08/20 02:30:42;;;;;;;3.17;2.80;;;18.50;99.90;;;;;;5009061;28;20513;-42
2021/08/20 02:33:09;;;;;;;5.43;2.83;;;18.50;99.90;;;;;;5010989;28;20453;-41
2021/08/20 02:35:37;;;;;;;3.63;2.90;;;18.50;99.90;;;;;;5002078;28;20454;-41
2021/08/20 02:38:04;;;;;;;3.50;3.00;;;18.50;99.90;;;;;;5001867;28;20488;-43
2021/08/20 02:40:31;;;;;;;3.20;2.90;;;18.50;99.90;;;;;;5017495;28;20437;-39
2021/08/20 02:42:57;;;;;;;3.97;3.30;;;18.50;99.90;;;;;;4998743;28;20850;-41
2021/08/20 02:45:24;;;;;;;3.03;2.73;;;18.50;99.90;;;;;;5012261;28;20441;-38
2021/08/20 02:47:51;;;;;;;4.50;3.10;;;18.40;99.90;;;;;;5017113;28;20449;-39
2021/08/20 02:50:17;;;;;;;3.93;2.87;;;18.40;99.90;;;;;;5012782;28;20478;-39
2021/08/20 02:52:45;;;;;;;4.23;3.20;;;18.40;99.90;;;;;;4997857;28;20485;-39
2021/08/20 02:55:12;;;;;;;3.10;2.80;;;18.40;99.90;;;;;;5007197;28;20531;-39
2021/08/20 02:57:39;;;;;;;4.90;3.27;;;18.30;99.90;;;;;;5014083;28;20930;-40
2021/08/20 03:00:07;;;;;;;4.40;3.10;;;18.30;99.90;;;;;;4998624;28;20437;-41
2021/08/20 03:02:33;;;;;;;3.10;2.60;;;18.30;99.90;;;;;;5015014;28;20453;-39
2021/08/20 03:05:00;;;;;;;4.60;3.23;;;18.30;99.90;;;;;;5004218;28;20832;-39
2021/08/20 03:07:27;;;;;;;5.60;3.80;;;18.30;99.90;;;;;;5009961;28;20845;-39
2021/08/20 03:09:55;;;;;;;5.50;3.57;;;18.30;99.90;;;;;;4998564;28;20967;-41
2021/08/20 03:12:24;;;;;;;4.30;3.10;;;18.30;99.90;;;;;;5009240;28;20441;-39
2021/08/20 03:14:51;;;;;;;4.30;2.93;;;18.40;99.90;;;;;;5005148;28;20860;-39
2021/08/20 03:17:18;;;;;;;4.20;3.50;;;18.40;99.90;;;;;;5001746;28;20485;-39
2021/08/20 03:19:44;;;;;;;3.53;2.83;;;18.40;99.90;;;;;;4998836;28;20985;-39
2021/08/20 03:22:11;;;;;;;4.00;3.47;;;18.40;99.90;;;;;;5014059;28;20480;-39
2021/08/20 03:24:38;;;;;;;4.37;3.60;;;18.30;99.90;;;;;;5006731;28;20456;-40
2021/08/20 03:27:06;;;;;;;6.90;3.70;;;18.30;99.90;;;;;;5006900;28;20450;-39
2021/08/20 03:29:33;;;;;;;4.70;3.97;;;18.40;99.90;;;;;;5013199;28;20465;-40
2021/08/20 03:32:00;;;;;;;3.97;3.30;;;18.40;99.90;;;;;;5001960;28;20973;-40
2021/08/20 03:34:26;;;;;;;5.80;3.20;;;18.40;99.90;;;;;;5011811;28;20509;-40
2021/08/20 03:36:54;;;;;;;4.27;3.20;;;18.50;99.90;;;;;;5000952;28;20810;-44
2021/08/20 03:39:20;;;;;;;3.70;3.20;;;18.50;99.90;;;;;;5004428;28;20469;-42
2021/08/20 03:41:48;;;;;;;4.80;3.70;;;18.50;99.90;;;;;;5014650;28;20491;-42
2021/08/20 03:44:16;;;;;;;2.87;2.53;;;18.50;99.90;;;;;;5002861;28;20449;-41
2021/08/20 03:46:42;;;;;;;4.83;3.80;;;18.50;99.90;;;;;;5009557;28;20454;-41
2021/08/20 03:49:10;;;;;;;3.30;2.87;;;18.50;99.90;;;;;;4997622;28;20531;-43
2021/08/20 03:51:36;;;;;;;4.73;3.17;;;18.50;99.90;;;;;;5013439;28;20531;-40
2021/08/20 03:54:03;;;;;;;4.70;3.30;;;18.50;99.90;;;;;;5001356;28;20445;-41
2021/08/20 03:56:30;;;;;;;4.43;3.50;;;18.50;99.90;;;;;;5010670;28;20446;-41
2021/08/20 03:58:58;;;;;;;4.50;3.43;;;18.50;99.90;;;;;;5008467;28;20454;-40
2021/08/20 04:01:26;;;;;;;5.60;4.30;;;18.50;99.90;;;;;;5003042;28;20438;-41
2021/08/20 04:03:53;;;;;;;4.93;3.63;;;18.50;99.90;;;;;;5013893;28;20453;-41
2021/08/20 04:06:19;;;;;;;5.53;3.47;;;18.50;99.90;;;;;;4997839;28;20458;-41
2021/08/20 04:08:46;;;;;;;5.43;3.80;;;18.40;99.90;;;;;;5004036;28;20512;-40
2021/08/20 04:11:13;;;;;;;3.93;3.53;;;18.40;99.90;;;;;;5005817;28;20486;-41
2021/08/20 04:13:40;;;;;;;6.77;4.27;;;18.40;99.90;;;;;;5008860;28;20453;-40
2021/08/20 04:16:07;;;;;;;4.80;3.50;;;18.30;99.90;;;;;;5013849;28;20437;-42
2021/08/20 04:18:39;;;;;;;5.40;3.80;;;18.40;99.90;;;;;;5009298;28;20429;-41
2021/08/20 04:21:06;;;;;;;6.10;3.33;;;18.30;99.90;;;;;;5008448;28;20485;-40
2021/08/20 04:23:33;;;;;;;4.77;4.37;;;18.40;99.90;;;;;;5009399;28;20438;-43
2021/08/20 04:26:00;;;;;;;4.27;3.27;;;18.40;99.90;;;;;;5012728;28;20450;-40
2021/08/20 04:28:26;;;;;;;4.67;4.03;;;18.40;99.90;;;;;;5012089;28;20450;-42
2021/08/20 04:30:53;;;;;;;4.90;4.00;;;18.40;99.90;;;;;;5012981;28;20476;-40
2021/08/20 04:33:20;;;;;;;13.03;4.87;;;18.50;99.90;;;;;;5011262;28;20448;-41
2021/08/20 04:35:48;;;;;;;6.00;4.17;;;18.40;99.90;;;;;;5011570;28;20462;-41
2021/08/20 04:38:15;;;;;;;6.40;4.77;;;18.40;99.90;;;;;;5008500;28;20474;-42
2021/08/20 04:40:42;;;;;;;6.97;4.70;;;18.30;99.90;;;;;;5008146;28;20533;-39
2021/08/20 04:43:08;;;;;;;7.30;5.30;;;18.30;99.90;;;;;;5006198;28;20765;-39
2021/08/20 04:45:35;;;;;;;9.20;5.80;;;18.20;99.90;;;;;;5012078;28;20520;-40
2021/08/20 04:48:01;;;;;;;10.17;5.70;;;18.20;99.90;;;;;;5004857;28;20966;-40
2021/08/20 04:50:30;;;;;;;7.37;4.90;;;18.20;99.90;;;;;;5007649;28;20473;-41
2021/08/20 04:52:59;;;;;;;7.33;5.73;;;18.20;99.90;;;;;;4998636;28;20529;-41
2021/08/20 04:55:26;;;;;;;9.70;4.80;;;18.10;99.90;;;;;;5014942;28;20468;-40
2021/08/20 04:57:52;;;;;;;8.10;5.97;;;18.10;99.90;;;;;;5017020;28;20453;-40
2021/08/20 05:00:19;;;;;;;7.83;5.57;;;18.10;99.90;;;;;;5011403;28;20442;-40
2021/08/20 05:02:46;;;;;;;6.90;5.30;;;18.10;99.90;;;;;;5005473;28;20840;-40
2021/08/20 05:05:13;;;;;;;8.30;5.23;;;18.20;99.90;;;;;;5016047;28;20449;-42
2021/08/20 05:07:40;;;;;;;13.10;6.87;;;18.20;99.90;;;;;;4999865;28;20446;-41
2021/08/20 05:10:10;;;;;;;9.83;6.60;;;18.20;99.90;;;;;;5013853;28;20464;-41
2021/08/20 05:12:37;;;;;;;8.17;6.23;;;18.20;99.90;;;;;;5008030;28;20542;-41
2021/08/20 05:15:05;;;;;;;8.23;6.17;;;18.20;99.90;;;;;;5010130;28;20430;-40
2021/08/20 05:17:31;;;;;;;8.60;5.90;;;18.20;99.90;;;;;;5014941;28;20456;-41
2021/08/20 05:19:58;;;;;;;8.63;6.50;;;18.20;99.90;;;;;;5001585;28;20470;-42
2021/08/20 05:22:25;;;;;;;9.90;6.30;;;18.20;99.90;;;;;;4998893;28;20508;-43
2021/08/20 05:24:51;;;;;;;8.13;6.03;;;18.30;99.90;;;;;;4998490;28;20446;-40
2021/08/20 05:27:19;;;;;;;10.07;6.10;;;18.30;99.90;;;;;;4984166;28;20455;-41
2021/08/20 05:29:46;;;;;;;8.80;5.97;;;18.20;99.90;;;;;;4992633;28;20450;-40
2021/08/20 05:32:13;;;;;;;7.90;5.93;;;18.20;99.90;;;;;;4980844;28;20563;-41
2021/08/20 05:34:39;;;;;;;8.20;6.33;;;18.20;99.90;;;;;;4997076;28;20450;-42
2021/08/20 05:37:06;;;;;;;8.30;6.53;;;18.20;99.90;;;;;;4986414;28;20447;-41
2021/08/20 05:39:33;;;;;;;7.87;5.97;;;18.20;99.90;;;;;;4993338;28;20446;-41
2021/08/20 05:41:59;;;;;;;9.63;6.27;;;18.20;99.90;;;;;;4994209;28;20497;-42
2021/08/20 05:44:27;;;;;;;7.80;6.10;;;18.20;99.90;;;;;;4984364;28;20458;-41
2021/08/20 05:46:54;;;;;;;8.90;6.37;;;18.20;99.90;;;;;;4997701;28;20450;-43
2021/08/20 05:49:21;;;;;;;14.43;7.47;;;18.20;99.90;;;;;;4998412;28;20789;-45
2021/08/20 05:51:47;;;;;;;9.00;6.57;;;18.30;99.90;;;;;;4998570;28;20497;-42
2021/08/20 05:54:14;;;;;;;12.37;6.90;;;18.30;99.90;;;;;;4997662;28;20465;-41
2021/08/20 05:56:40;;;;;;;11.83;7.60;;;18.30;99.90;;;;;;4996709;28;20818;-42
2021/08/20 05:59:08;;;;;;;7.70;6.63;;;18.30;99.90;;;;;;4997750;28;20450;-43
2021/08/20 06:01:36;;;;;;;13.97;6.57;;;18.40;99.90;;;;;;4997900;28;20462;-41
2021/08/20 06:04:04;;;;;;;9.33;7.03;;;18.40;99.90;;;;;;4998204;28;20442;-43
2021/08/20 06:06:31;;;;;;;10.73;7.30;;;18.40;99.90;;;;;;4998202;28;20450;-41
2021/08/20 06:08:57;;;;;;;8.80;6.73;;;18.50;99.90;;;;;;4998262;28;20946;-42
2021/08/20 06:11:24;;;;;;;9.87;7.83;;;18.60;99.90;;;;;;4998018;28;20528;-42
2021/08/20 06:13:51;;;;;;;9.30;7.57;;;18.60;99.90;;;;;;4997933;28;20508;-42
2021/08/20 06:16:18;;;;;;;11.60;8.73;;;18.70;99.90;;;;;;4997701;28;20454;-41
2021/08/20 06:18:46;;;;;;;13.33;10.10;;;18.70;99.90;;;;;;4997552;28;20528;-41
2021/08/20 06:21:13;;;;;;;10.83;8.77;;;18.80;99.90;;;;;;5016421;28;20492;-44
2021/08/20 06:23:39;;;;;;;13.33;9.07;;;19.00;99.90;;;;;;5014362;28;20869;-46
2021/08/20 06:26:06;;;;;;;15.37;10.87;;;19.10;99.90;;;;;;5016260;28;20452;-41
2021/08/20 06:28:33;;;;;;;13.80;9.20;;;19.20;99.90;;;;;;5016352;28;20445;-44
2021/08/20 06:31:03;;;;;;;11.70;9.93;;;19.30;99.90;;;;;;5016915;28;20495;-40
2021/08/20 06:33:30;;;;;;;13.57;10.47;;;19.40;99.90;;;;;;5017023;28;20862;-40
2021/08/20 06:35:58;;;;;;;15.27;11.67;;;19.50;99.90;;;;;;5016910;28;20479;-41
2021/08/20 06:38:25;;;;;;;16.77;11.33;;;19.50;99.90;;;;;;5017397;28;20527;-43
2021/08/20 06:40:52;;;;;;;17.20;12.50;;;19.60;99.90;;;;;;5014625;28;20445;-41
2021/08/20 06:43:20;;;;;;;17.03;12.93;;;19.50;99.90;;;;;;5014686;28;20457;-42
2021/08/20 06:45:47;;;;;;;17.93;12.67;;;19.60;99.90;;;;;;5014714;28;20498;-40
2021/08/20 06:48:16;;;;;;;16.30;13.20;;;19.60;99.90;;;;;;5014499;28;20453;-40
2021/08/20 06:50:42;;;;;;;13.63;12.00;;;19.70;99.90;;;;;;5017170;28;20977;-40
2021/08/20 06:53:11;;;;;;;21.93;14.17;;;19.70;99.90;;;;;;5019296;28;20519;-42
2021/08/20 06:55:39;;;;;;;19.10;14.10;;;19.70;99.90;;;;;;5020181;28;20457;-41
2021/08/20 06:58:05;;;;;;;16.43;12.33;;;19.70;99.90;;;;;;5020793;28;20824;-42
2021/08/20 07:00:32;;;;;;;16.67;12.37;;;19.80;99.90;;;;;;5019730;28;20465;-42
2021/08/20 07:02:59;;;;;;;18.00;14.17;;;19.80;99.90;;;;;;5019476;28;21098;-42
2021/08/20 07:05:26;;;;;;;19.37;14.20;;;19.80;99.90;;;;;;5019373;28;20488;-40
2021/08/20 07:07:52;;;;;;;16.17;14.40;;;19.80;99.90;;;;;;5017647;28;20548;-39
2021/08/20 07:10:20;;;;;;;18.63;13.33;;;19.80;99.90;;;;;;5003009;28;20473;-41
2021/08/20 07:12:47;;;;;;;16.43;11.77;;;19.90;99.90;;;;;;5015459;28;20488;-43
2021/08/20 07:15:14;;;;;;;17.47;12.23;;;19.80;99.90;;;;;;5017643;28;20445;-41
2021/08/20 07:17:42;;;;;;;16.80;12.20;;;19.80;99.90;;;;;;5009077;28;21009;-47
2021/08/20 07:20:11;;;;;;;17.60;12.53;;;19.70;99.90;;;;;;5016860;28;20487;-43
2021/08/20 07:22:37;;;;;;;16.43;12.13;;;19.60;99.90;;;;;;5001438;28;20449;-44
2021/08/20 07:25:05;;;;;;;17.07;12.37;;;19.50;99.90;;;;;;4998092;28;20528;-42
2021/08/20 07:27:33;;;;;;;16.90;13.20;;;19.50;99.90;;;;;;5005237;28;20511;-42
2021/08/20 07:29:59;;;;;;;13.57;10.80;;;19.50;99.90;;;;;;5017777;28;20469;-42
2021/08/20 07:32:26;;;;;;;13.07;11.17;;;19.60;99.90;;;;;;5003206;28;20485;-40
2021/08/20 07:34:53;;;;;;;20.20;12.13;;;19.60;99.90;;;;;;4998034;28;20461;-46
2021/08/20 07:37:19;;;;;;;15.83;11.30;;;19.70;99.90;;;;;;5003463;28;20870;-40
2021/08/20 07:39:46;;;;;;;14.20;12.63;;;19.70;99.90;;;;;;4997606;28;20516;-40
2021/08/20 07:42:13;;;;;;;13.93;11.10;;;19.70;99.90;;;;;;5003418;28;20504;-41
2021/08/20 07:44:41;;;;;;;17.20;12.73;;;19.60;99.90;;;;;;5002608;28;20448;-40
2021/08/20 07:47:08;;;;;;;16.40;12.70;;;19.60;99.90;;;;;;5002139;28;20457;-42
2021/08/20 07:49:34;;;;;;;17.17;12.80;;;19.50;99.90;;;;;;5013708;28;20445;-41
2021/08/20 07:52:02;;;;;;;22.80;13.30;;;19.40;99.90;;;;;;5009173;28;21008;-40
2021/08/20 07:54:28;;;;;;;14.60;13.03;;;19.40;99.90;;;;;;5001542;28;20461;-42
2021/08/20 07:56:55;;;;;;;15.83;11.77;;;19.30;99.90;;;;;;4997385;28;20458;-44
2021/08/20 07:59:22;;;;;;;15.07;11.57;;;19.40;99.90;;;;;;4997351;28;20454;-41
2021/08/20 08:01:50;;;;;;;13.03;10.13;;;19.30;99.90;;;;;;4997781;28;20442;-40
2021/08/20 08:04:16;;;;;;;10.93;8.07;;;19.20;99.90;;;;;;5006224;28;20442;-41
2021/08/20 08:06:43;;;;;;;10.20;7.77;;;19.00;99.90;;;;;;5004907;28;20793;-41
2021/08/20 08:09:10;;;;;;;7.97;7.10;;;18.80;99.90;;;;;;5000856;28;20939;-44
2021/08/20 08:11:37;;;;;;;11.43;8.77;;;18.50;99.90;;;;;;5001044;28;20482;-41
2021/08/20 08:14:05;;;;;;;10.33;5.97;;;18.40;99.90;;;;;;5000506;28;20515;-42
2021/08/20 08:16:33;;;;;;;9.40;6.90;;;18.30;99.90;;;;;;5001135;28;20461;-41
2021/08/20 08:19:01;;;;;;;10.20;7.33;;;18.20;99.90;;;;;;5000340;28;20442;-41
2021/08/20 08:21:30;;;;;;;9.40;6.40;;;18.30;99.90;;;;;;5004458;28;20445;-39
2021/08/20 08:23:57;;;;;;;6.90;6.20;;;18.20;99.90;;;;;;5000965;28;20454;-39
2021/08/20 08:26:24;;;;;;;9.87;7.17;;;18.10;99.90;;;;;;5003638;28;20466;-40
2021/08/20 08:28:52;;;;;;;7.97;6.50;;;18.10;99.90;;;;;;5013642;28;20759;-40
2021/08/20 08:31:19;;;;;;;9.17;7.60;;;18.20;99.90;;;;;;5005296;28;20448;-42
2021/08/20 08:33:46;;;;;;;11.10;7.50;;;18.20;99.90;;;;;;5017036;28;20799;-41
2021/08/20 08:36:14;;;;;;;11.70;7.73;;;18.20;99.90;;;;;;5002200;28;20477;-40
2021/08/20 08:38:41;;;;;;;10.87;7.80;;;18.30;99.90;;;;;;5013530;28;20441;-42
2021/08/20 08:41:07;;;;;;;11.53;8.00;;;18.30;99.90;;;;;;5003160;28;20448;-43
2021/08/20 08:43:34;;;;;;;12.77;8.60;;;18.20;99.90;;;;;;5006789;28;20445;-41
2021/08/20 08:46:04;;;;;;;12.77;8.47;;;18.10;99.90;;;;;;5010200;28;20441;-40
2021/08/20 08:48:32;;;;;;;12.60;8.40;;;18.10;99.90;;;;;;5000518;28;20500;-40
2021/08/20 08:51:00;;;;;;;13.20;9.47;;;18.10;99.90;;;;;;5017117;28;20839;-41
2021/08/20 08:53:29;;;;;;;15.23;10.00;;;18.20;99.90;;;;;;5008377;28;20493;-41
2021/08/20 08:55:56;;;;;;;11.63;9.70;;;18.20;99.90;;;;;;5009578;28;20461;-48
2021/08/20 08:58:23;;;;;;;11.87;9.90;;;18.20;99.90;;;;;;5000289;28;20448;-43
2021/08/20 09:00:50;;;;;;;12.00;8.80;;;18.20;99.90;;;;;;5000605;28;20448;-41
2021/08/20 09:03:24;;;;;;;12.70;9.73;;;18.30;99.90;;;;;;5016269;28;20437;-40
2021/08/20 09:05:51;;;;;;;12.27;10.97;;;18.40;99.90;;;;;;5015786;28;20524;-42
2021/08/20 09:08:19;;;;;;;15.87;10.77;;;18.40;99.90;;;;;;5000899;28;20465;-42
2021/08/20 09:10:52;;;;;;;13.70;10.60;;;18.50;99.90;;;;;;5015752;28;20441;-42
2021/08/20 09:13:20;;;;;;;20.10;12.60;;;18.40;99.90;;;;;;5008019;28;20470;-40
2021/08/20 09:15:48;;;;;;;17.60;11.40;;;18.50;99.90;;;;;;5006755;28;20445;-41
2021/08/20 09:18:22;;;;;;;13.80;10.70;;;18.50;99.90;;;;;;5000368;28;20446;-42
2021/08/20 09:20:50;;;;;;;14.67;10.30;;;18.60;99.90;;;;;;5011553;28;20483;-42
2021/08/20 09:23:19;;;;;;;17.60;12.07;;;18.50;99.90;;;;;;5002925;28;20529;-42
2021/08/20 09:25:47;;;;;;;17.80;10.90;;;18.50;99.90;;;;;;5004493;28;20946;-42
2021/08/20 09:28:19;;;;;;;14.57;10.27;;;18.50;99.90;;;;;;4996395;28;20457;-42
2021/08/20 09:30:59;;;;;;;15.03;10.13;;;18.50;99.90;;;;;;5014862;28;20917;-42
2021/08/20 09:33:28;;;;;;;10.37;8.80;;;18.50;99.90;;;;;;5015921;28;20461;-43
2021/08/20 09:35:59;;;;;;;11.10;9.00;;;18.50;99.90;;;;;;5003525;28;20461;-42
2021/08/20 09:38:26;;;;;;;11.17;8.40;;;18.50;99.90;;;;;;5012140;28;20460;-44
2021/08/20 09:40:57;;;;;;;11.33;7.17;;;18.50;99.90;;;;;;4999816;28;20913;-44
2021/08/20 09:43:29;;;;;;;10.27;7.53;;;18.50;99.90;;;;;;5007357;28;20811;-42
2021/08/20 09:46:06;;;;;;;14.67;8.50;;;18.50;99.90;;;;;;5008681;28;20595;-41
2021/08/20 09:48:50;;;;;;;13.50;9.30;;;18.50;99.90;;;;;;5013545;28;20530;-42
2021/08/20 09:51:35;;;;;;;9.00;7.03;;;18.60;99.90;;;;;;5015601;28;20449;-43
2021/08/20 09:54:04;;;;;;;8.43;6.60;;;18.80;99.90;;;;;;5002613;28;20466;-44
2021/08/20 09:56:31;;;;;;;10.03;7.60;;;19.00;99.90;;;;;;5013200;28;20464;-41
2021/08/20 09:59:02;;;;;;;10.70;7.90;;;19.00;99.90;;;;;;5011075;28;20530;-44
2021/08/20 10:01:30;;;;;;;9.90;7.50;;;19.00;99.90;;;;;;5004187;28;20469;-42
2021/08/20 10:03:59;;;;;;;9.87;7.90;;;19.00;99.90;;;;;;5004268;28;20532;-44
2021/08/20 10:06:30;;;;;;;7.70;5.80;;;19.10;99.90;;;;;;5014893;28;20451;-41
2021/08/20 10:08:59;;;;;;;6.93;6.03;;;19.20;99.90;;;;;;4999991;28;20449;-47
2021/08/20 10:11:28;;;;;;;7.43;5.50;;;19.50;99.90;;;;;;5014720;28;20481;-43
2021/08/20 10:14:01;;;;;;;10.50;6.60;;;19.90;99.90;;;;;;5002451;28;20477;-42
2021/08/20 10:16:31;;;;;;;7.60;5.50;;;20.30;99.90;;;;;;5010275;28;20453;-47
2021/08/20 10:19:00;;;;;;;6.90;5.80;;;20.60;99.90;;;;;;4994720;28;20885;-41
2021/08/20 10:21:29;;;;;;;6.80;4.90;;;21.10;99.90;;;;;;5009538;28;20445;-44
2021/08/20 10:23:55;;;;;;;7.10;4.83;;;21.60;99.90;;;;;;5002152;28;20453;-43
2021/08/20 10:26:23;;;;;;;6.33;5.20;;;21.60;99.90;;;;;;5004549;28;20449;-46
2021/08/20 10:28:51;;;;;;;5.43;4.70;;;21.80;99.90;;;;;;5002052;28;20452;-42
2021/08/20 10:31:21;;;;;;;4.97;4.50;;;22.00;99.90;;;;;;5005056;28;20515;-42
2021/08/20 10:33:48;;;;;;;6.97;5.07;;;22.10;99.90;;;;;;5016058;28;20511;-44
2021/08/20 10:36:15;;;;;;;6.43;4.97;;;22.10;99.90;;;;;;5013004;28;20452;-41
2021/08/20 10:38:45;;;;;;;6.13;5.40;;;22.00;99.90;;;;;;5001604;28;20450;-41
2021/08/20 10:41:17;;;;;;;7.03;5.47;;;22.50;99.90;;;;;;5017700;28;20444;-42
2021/08/20 10:43:48;;;;;;;6.20;5.60;;;22.60;99.90;;;;;;5006571;28;20454;-44
2021/08/20 10:46:48;;;;;;;5.30;4.20;;;22.90;99.90;;;;;;5012704;28;20451;-42
2021/08/20 10:49:22;;;;;;;10.97;5.37;;;23.50;99.90;;;;;;5004756;28;20459;-42
2021/08/20 10:51:59;;;;;;;8.40;5.20;;;24.20;99.90;;;;;;5017326;28;20440;-42
2021/08/20 10:54:59;;;;;;;7.93;5.00;;;23.80;99.90;;;;;;5010931;28;20457;-41
2021/08/20 10:58:01;;;;;;;5.50;5.00;;;23.50;99.90;;;;;;4993747;28;20504;-45
2021/08/20 11:00:29;;;;;;;5.07;4.37;;;23.30;99.90;;;;;;5014705;28;20506;-46
2021/08/20 11:02:57;;;;;;;6.50;5.03;;;23.00;99.90;;;;;;5013217;28;20526;-41
2021/08/20 11:05:42;;;;;;;6.10;5.37;;;22.80;99.90;;;;;;5009851;28;20441;-44
2021/08/20 11:08:38;;;;;;;7.90;5.23;;;22.60;99.90;;;;;;5019956;28;20436;-39
2021/08/20 11:11:06;;;;;;;8.67;5.87;;;22.50;99.90;;;;;;5011598;28;20523;-40
2021/08/20 11:13:35;;;;;;;6.33;5.70;;;22.60;99.90;;;;;;4997341;28;20485;-42
2021/08/20 11:16:02;;;;;;;6.53;5.17;;;22.70;99.90;;;;;;5010861;28;20445;-42
2021/08/20 11:18:46;;;;;;;4.50;4.10;;;23.10;99.90;;;;;;5001433;28;20536;-42
2021/08/20 11:21:50;;;;;;;6.70;5.27;;;23.40;99.90;;;;;;5012032;28;20577;-45
2021/08/20 11:24:18;;;;;;;4.87;4.27;;;23.30;99.90;;;;;;5014912;28;20769;-41
2021/08/20 11:26:45;;;;;;;6.93;4.80;;;23.40;99.90;;;;;;5019067;28;20468;-43
2021/08/20 11:29:14;;;;;;;4.60;4.20;;;23.70;99.90;;;;;;5018935;28;20437;-42
2021/08/20 11:31:40;;;;;;;6.10;4.70;;;24.00;99.90;;;;;;5008076;28;20450;-45
2021/08/20 11:34:07;;;;;;;5.73;4.50;;;24.00;99.90;;;;;;5012588;28;20476;-42
2021/08/20 11:36:34;;;;;;;6.70;5.57;;;23.80;99.90;;;;;;5002325;28;20466;-41
2021/08/20 11:39:06;;;;;;;5.70;5.10;;;23.60;99.90;;;;;;5013175;28;20446;-43
2021/08/20 11:41:40;;;;;;;7.80;5.73;;;23.40;99.90;;;;;;5012092;28;20442;-43
2021/08/20 11:44:10;;;;;;;6.37;5.43;;;23.30;99.90;;;;;;5012376;28;20864;-42
2021/08/20 11:46:38;;;;;;;8.33;5.67;;;23.10;99.90;;;;;;5002981;28;20458;-42
2021/08/20 11:49:07;;;;;;;9.17;6.87;;;22.80;99.90;;;;;;5012926;28;20450;-41
2021/08/20 11:51:36;;;;;;;6.27;5.30;;;22.70;99.90;;;;;;5009065;28;20452;-42
2021/08/20 11:54:07;;;;;;;5.27;4.63;;;22.70;99.90;;;;;;5011522;28;20558;-43
2021/08/20 11:56:34;;;;;;;6.40;4.83;;;22.70;99.90;;;;;;5016900;28;20448;-45
2021/08/20 11:59:09;;;;;;;7.07;5.83;;;22.70;99.90;;;;;;5001837;28;20914;-45
2021/08/20 12:01:39;;;;;;;6.10;5.00;;;22.60;99.90;;;;;;5006654;28;20453;-41
2021/08/20 12:04:07;;;;;;;5.20;4.70;;;22.50;99.90;;;;;;4996888;28;20446;-42
2021/08/20 12:06:34;;;;;;;6.70;5.90;;;22.30;99.90;;;;;;4998106;28;20537;-40
2021/08/20 12:09:13;;;;;;;13.03;6.60;;;22.20;99.90;;;;;;5016230;28;20543;-40
2021/08/20 12:11:42;;;;;;;5.93;5.40;;;22.00;99.90;;;;;;5006378;28;20453;-40
2021/08/20 12:14:15;;;;;;;6.93;6.13;;;21.90;99.90;;;;;;5016516;28;20890;-42
2021/08/20 12:16:44;;;;;;;6.57;5.87;;;21.80;99.90;;;;;;4996981;28;20442;-42
2021/08/20 12:19:12;;;;;;;9.90;6.40;;;21.50;99.90;;;;;;5009150;28;20544;-43
2021/08/20 12:21:39;;;;;;;8.70;5.90;;;21.40;99.90;;;;;;5006315;28;20441;-45
2021/08/20 12:24:07;;;;;;;8.73;7.07;;;21.40;99.90;;;;;;5015757;28;20438;-42
2021/08/20 12:26:35;;;;;;;6.90;6.30;;;21.30;99.90;;;;;;5014497;28;20534;-44
2021/08/20 12:29:14;;;;;;;8.93;7.43;;;21.30;99.90;;;;;;5001344;28;20429;-42
2021/08/20 12:31:41;;;;;;;8.87;6.30;;;21.30;99.90;;;;;;5012613;28;20933;-42
2021/08/20 12:34:10;;;;;;;7.80;5.83;;;21.20;99.90;;;;;;5014928;28;20480;-45
2021/08/20 12:36:36;;;;;;;7.43;6.67;;;21.20;99.90;;;;;;4999397;28;20442;-42
2021/08/20 12:39:10;;;;;;;7.80;6.70;;;21.10;99.90;;;;;;5015816;28;20981;-41
2021/08/20 12:41:39;;;;;;;8.77;7.67;;;21.10;99.90;;;;;;5015709;28;20516;-41
2021/08/20 12:44:07;;;;;;;8.03;7.23;;;21.20;99.90;;;;;;5015157;28;20945;-41
2021/08/20 12:46:36;;;;;;;7.80;6.93;;;21.20;99.90;;;;;;5015147;28;20453;-41
2021/08/20 12:49:05;;;;;;;11.30;8.73;;;21.30;99.90;;;;;;4998384;28;20453;-44